sensor_id;sensor_type;location;lat;lon;timestamp;temperature;humidity
354;DHT22;165;53.592;10.044;2022-07-29T00:00:38;14.20;99.90
354;DHT22;165;53.592;10.044;2022-07-29T00:03:04;14.20;99.90
354;DHT22;165;53.592;10.044;2022-07-29T00:05:29;14.20;99.90
354;DHT22;165;53.592;10.044;2022-07-29T00:07:55;14.20;99.90
354;DHT22;165;53.592;10.044;2022-07-29T00:10:20;14.10;99.90
354;DHT22;165;53.592;10.044;2022-07-29T00:12:46;14.10;99.90
354;DHT22;165;53.592;10.044;2022-07-29T00:15:13;14.00;99.90
354;DHT22;165;53.592;10.044;2022-07-29T00:17:38;14.00;99.90
354;DHT22;165;53.592;10.044;2022-07-29T00:20:04;13.90;99.90
354;DHT22;165;53.592;10.044;2022-07-29T00:22:30;13.90;99.90
354;DHT22;165;53.592;10.044;2022-07-29T00:24:55;13.90;99.90
354;DHT22;165;53.592;10.044;2022-07-29T00:27:21;13.90;99.90
354;DHT22;165;53.592;10.044;2022-07-29T00:29:47;13.90;99.90
354;DHT22;165;53.592;10.044;2022-07-29T00:32:13;13.80;99.90
354;DHT22;165;53.592;10.044;2022-07-29T00:34:38;13.80;99.90
354;DHT22;165;53.592;10.044;2022-07-29T00:37:23;13.80;99.90
354;DHT22;165;53.592;10.044;2022-07-29T00:39:48;13.80;99.90
354;DHT22;165;53.592;10.044;2022-07-29T00:42:14;13.70;99.90
354;DHT22;165;53.592;10.044;2022-07-29T00:44:41;13.70;99.90
354;DHT22;165;53.592;10.044;2022-07-29T00:47:08;13.70;99.90
354;DHT22;165;53.592;10.044;2022-07-29T00:49:34;13.70;99.90
354;DHT22;165;53.592;10.044;2022-07-29T00:52:04;13.70;99.90
354;DHT22;165;53.592;10.044;2022-07-29T00:54:30;13.70;99.90
354;DHT22;165;53.592;10.044;2022-07-29T00:56:58;13.70;99.90
354;DHT22;165;53.592;10.044;2022-07-29T00:59:23;13.70;99.90
354;DHT22;165;53.592;10.044;2022-07-29T01:01:50;13.60;99.90
354;DHT22;165;53.592;10.044;2022-07-29T01:04:15;13.60;99.90
354;DHT22;165;53.592;10.044;2022-07-29T01:06:42;13.60;99.90
354;DHT22;165;53.592;10.044;2022-07-29T01:09:08;13.60;99.90
354;DHT22;165;53.592;10.044;2022-07-29T01:11:34;13.50;99.90
354;DHT22;165;53.592;10.044;2022-07-29T01:14:00;13.60;99.90
354;DHT22;165;53.592;10.044;2022-07-29T01:16:32;13.60;99.90
354;DHT22;165;53.592;10.044;2022-07-29T01:19:13;13.60;99.90
354;DHT22;165;53.592;10.044;2022-07-29T01:21:53;13.60;99.90
354;DHT22;165;53.592;10.044;2022-07-29T01:24:29;13.60;99.90
354;DHT22;165;53.592;10.044;2022-07-29T01:29:56;13.60;99.90
354;DHT22;165;53.592;10.044;2022-07-29T01:32:27;13.60;99.90
354;DHT22;165;53.592;10.044;2022-07-29T01:35:03;13.60;99.90
354;DHT22;165;53.592;10.044;2022-07-29T01:37:39;13.60;99.90
354;DHT22;165;53.592;10.044;2022-07-29T01:40:22;13.60;99.90
354;DHT22;165;53.592;10.044;2022-07-29T01:42:51;13.70;99.90
354;DHT22;165;53.592;10.044;2022-07-29T01:45:26;13.70;99.90
354;DHT22;165;53.592;10.044;2022-07-29T01:48:06;13.70;99.90
354;DHT22;165;53.592;10.044;2022-07-29T01:50:56;13.70;99.90
354;DHT22;165;53.592;10.044;2022-07-29T01:53:37;13.70;99.90
354;DHT22;165;53.592;10.044;2022-07-29T01:56:04;13.70;99.90
354;DHT22;165;53.592;10.044;2022-07-29T01:58:32;13.80;99.90
354;DHT22;165;53.592;10.044;2022-07-29T02:01:00;13.80;99.90
354;DHT22;165;53.592;10.044;2022-07-29T02:03:27;13.70;99.90
354;DHT22;165;53.592;10.044;2022-07-29T02:05:53;13.80;99.90
354;DHT22;165;53.592;10.044;2022-07-29T02:08:21;13.80;99.90
354;DHT22;165;53.592;10.044;2022-07-29T02:10:48;13.80;99.90
354;DHT22;165;53.592;10.044;2022-07-29T02:13:16;13.80;99.90
354;DHT22;165;53.592;10.044;2022-07-29T02:15:42;13.80;99.90
354;DHT22;165;53.592;10.044;2022-07-29T02:18:14;13.80;99.90
354;DHT22;165;53.592;10.044;2022-07-29T02:20:44;13.80;99.90
354;DHT22;165;53.592;10.044;2022-07-29T02:23:11;13.80;99.90
354;DHT22;165;53.592;10.044;2022-07-29T02:25:38;13.90;99.90
354;DHT22;165;53.592;10.044;2022-07-29T02:28:06;13.80;99.90
354;DHT22;165;53.592;10.044;2022-07-29T02:30:34;13.80;99.90
354;DHT22;165;53.592;10.044;2022-07-29T02:33:01;13.80;99.90
354;DHT22;165;53.592;10.044;2022-07-29T02:35:28;13.90;99.90
354;DHT22;165;53.592;10.044;2022-07-29T02:37:54;13.80;99.90
354;DHT22;165;53.592;10.044;2022-07-29T02:40:40;13.80;99.90
354;DHT22;165;53.592;10.044;2022-07-29T02:43:08;13.80;99.90
354;DHT22;165;53.592;10.044;2022-07-29T02:45:35;13.80;99.90
354;DHT22;165;53.592;10.044;2022-07-29T02:48:05;13.80;99.90
354;DHT22;165;53.592;10.044;2022-07-29T02:50:36;13.80;99.90
354;DHT22;165;53.592;10.044;2022-07-29T02:53:09;13.80;99.90
354;DHT22;165;53.592;10.044;2022-07-29T02:55:47;13.80;99.90
354;DHT22;165;53.592;10.044;2022-07-29T02:58:25;13.80;99.90
354;DHT22;165;53.592;10.044;2022-07-29T03:00:55;13.70;99.90
354;DHT22;165;53.592;10.044;2022-07-29T03:03:22;13.80;99.90
354;DHT22;165;53.592;10.044;2022-07-29T03:05:54;13.70;99.90
354;DHT22;165;53.592;10.044;2022-07-29T03:08:20;13.70;99.90
354;DHT22;165;53.592;10.044;2022-07-29T03:10:47;13.70;99.90
354;DHT22;165;53.592;10.044;2022-07-29T03:13:14;13.70;99.90
354;DHT22;165;53.592;10.044;2022-07-29T03:15:42;13.70;99.90
354;DHT22;165;53.592;10.044;2022-07-29T03:18:09;13.70;99.90
354;DHT22;165;53.592;10.044;2022-07-29T03:20:35;13.70;99.90
354;DHT22;165;53.592;10.044;2022-07-29T03:23:02;13.80;99.90
354;DHT22;165;53.592;10.044;2022-07-29T03:25:27;13.90;99.90
354;DHT22;165;53.592;10.044;2022-07-29T03:27:54;13.90;99.90
354;DHT22;165;53.592;10.044;2022-07-29T03:30:19;13.90;99.90
354;DHT22;165;53.592;10.044;2022-07-29T03:32:45;13.90;99.90
354;DHT22;165;53.592;10.044;2022-07-29T03:35:10;14.00;99.90
354;DHT22;165;53.592;10.044;2022-07-29T03:37:36;14.00;99.90
354;DHT22;165;53.592;10.044;2022-07-29T03:40:04;14.00;99.90
354;DHT22;165;53.592;10.044;2022-07-29T03:42:36;14.00;99.90
354;DHT22;165;53.592;10.044;2022-07-29T03:45:06;14.00;99.90
354;DHT22;165;53.592;10.044;2022-07-29T03:47:33;14.00;99.90
354;DHT22;165;53.592;10.044;2022-07-29T03:50:06;14.00;99.90
354;DHT22;165;53.592;10.044;2022-07-29T03:52:32;14.00;99.90
354;DHT22;165;53.592;10.044;2022-07-29T03:54:58;14.00;99.90
354;DHT22;165;53.592;10.044;2022-07-29T03:57:26;14.00;99.90
354;DHT22;165;53.592;10.044;2022-07-29T03:59:53;14.00;99.90
354;DHT22;165;53.592;10.044;2022-07-29T04:02:20;14.10;99.90
354;DHT22;165;53.592;10.044;2022-07-29T04:04:46;14.10;99.90
354;DHT22;165;53.592;10.044;2022-07-29T04:07:12;14.20;99.90
354;DHT22;165;53.592;10.044;2022-07-29T04:09:38;14.20;99.90
354;DHT22;165;53.592;10.044;2022-07-29T04:12:05;14.30;99.90
354;DHT22;165;53.592;10.044;2022-07-29T04:14:34;14.30;99.90
354;DHT22;165;53.592;10.044;2022-07-29T04:17:03;14.40;99.90
354;DHT22;165;53.592;10.044;2022-07-29T04:19:30;14.30;99.90
354;DHT22;165;53.592;10.044;2022-07-29T04:21:56;14.40;99.90
354;DHT22;165;53.592;10.044;2022-07-29T04:24:21;14.50;99.90
354;DHT22;165;53.592;10.044;2022-07-29T04:26:47;14.50;99.90
354;DHT22;165;53.592;10.044;2022-07-29T04:29:13;14.50;99.90
354;DHT22;165;53.592;10.044;2022-07-29T04:31:42;14.60;99.90
354;DHT22;165;53.592;10.044;2022-07-29T04:34:08;14.70;99.90
354;DHT22;165;53.592;10.044;2022-07-29T04:36:34;14.80;99.90
354;DHT22;165;53.592;10.044;2022-07-29T04:39:00;14.70;99.90
354;DHT22;165;53.592;10.044;2022-07-29T04:41:29;14.80;99.90
354;DHT22;165;53.592;10.044;2022-07-29T04:43:56;14.90;99.90
354;DHT22;165;53.592;10.044;2022-07-29T04:46:21;14.90;99.90
354;DHT22;165;53.592;10.044;2022-07-29T04:48:47;14.90;99.90
354;DHT22;165;53.592;10.044;2022-07-29T04:51:15;15.00;99.90
354;DHT22;165;53.592;10.044;2022-07-29T04:53:41;15.10;99.90
354;DHT22;165;53.592;10.044;2022-07-29T04:56:06;15.20;99.90
354;DHT22;165;53.592;10.044;2022-07-29T04:58:34;15.30;99.90
354;DHT22;165;53.592;10.044;2022-07-29T05:01:00;15.40;99.90
354;DHT22;165;53.592;10.044;2022-07-29T05:03:26;15.50;99.90
354;DHT22;165;53.592;10.044;2022-07-29T05:05:51;15.60;99.90
354;DHT22;165;53.592;10.044;2022-07-29T05:08:17;15.60;99.90
354;DHT22;165;53.592;10.044;2022-07-29T05:10:42;15.70;99.90
354;DHT22;165;53.592;10.044;2022-07-29T05:13:08;15.80;99.90
354;DHT22;165;53.592;10.044;2022-07-29T05:15:34;16.00;99.90
354;DHT22;165;53.592;10.044;2022-07-29T05:18:00;16.00;99.90
354;DHT22;165;53.592;10.044;2022-07-29T05:20:27;16.10;99.90
354;DHT22;165;53.592;10.044;2022-07-29T05:22:55;16.20;99.90
354;DHT22;165;53.592;10.044;2022-07-29T05:25:21;16.30;99.90
354;DHT22;165;53.592;10.044;2022-07-29T05:27:47;16.40;99.90
354;DHT22;165;53.592;10.044;2022-07-29T05:30:12;16.50;99.90
354;DHT22;165;53.592;10.044;2022-07-29T05:32:38;16.70;99.90
354;DHT22;165;53.592;10.044;2022-07-29T05:35:04;16.80;99.90
354;DHT22;165;53.592;10.044;2022-07-29T05:37:30;16.80;99.90
354;DHT22;165;53.592;10.044;2022-07-29T05:39:56;17.00;99.90
354;DHT22;165;53.592;10.044;2022-07-29T05:42:21;17.20;99.90
354;DHT22;165;53.592;10.044;2022-07-29T05:44:47;17.40;99.90
354;DHT22;165;53.592;10.044;2022-07-29T05:47:12;18.30;99.90
354;DHT22;165;53.592;10.044;2022-07-29T05:49:38;18.50;99.90
354;DHT22;165;53.592;10.044;2022-07-29T05:52:06;18.40;99.90
354;DHT22;165;53.592;10.044;2022-07-29T05:54:32;18.30;99.90
354;DHT22;165;53.592;10.044;2022-07-29T05:56:57;18.20;99.90
354;DHT22;165;53.592;10.044;2022-07-29T05:59:23;18.20;99.90
354;DHT22;165;53.592;10.044;2022-07-29T06:01:48;18.40;99.90
354;DHT22;165;53.592;10.044;2022-07-29T06:04:14;18.70;99.90
354;DHT22;165;53.592;10.044;2022-07-29T06:06:39;20.00;99.90
354;DHT22;165;53.592;10.044;2022-07-29T06:09:05;21.60;99.90
354;DHT22;165;53.592;10.044;2022-07-29T06:11:30;22.30;99.90
354;DHT22;165;53.592;10.044;2022-07-29T06:13:56;22.10;99.90
354;DHT22;165;53.592;10.044;2022-07-29T06:16:21;22.00;99.90
354;DHT22;165;53.592;10.044;2022-07-29T06:18:47;21.90;99.90
354;DHT22;165;53.592;10.044;2022-07-29T06:21:12;21.70;99.90
354;DHT22;165;53.592;10.044;2022-07-29T06:23:39;21.80;99.90
354;DHT22;165;53.592;10.044;2022-07-29T06:26:05;22.10;99.90
354;DHT22;165;53.592;10.044;2022-07-29T06:28:31;22.20;99.90
354;DHT22;165;53.592;10.044;2022-07-29T06:30:57;22.20;99.90
354;DHT22;165;53.592;10.044;2022-07-29T06:33:22;22.60;99.90
354;DHT22;165;53.592;10.044;2022-07-29T06:35:48;23.90;99.90
354;DHT22;165;53.592;10.044;2022-07-29T06:38:14;24.70;99.90
354;DHT22;165;53.592;10.044;2022-07-29T06:40:44;24.60;97.20
354;DHT22;165;53.592;10.044;2022-07-29T06:43:44;23.70;99.10
354;DHT22;165;53.592;10.044;2022-07-29T06:46:16;23.60;99.90
354;DHT22;165;53.592;10.044;2022-07-29T06:48:44;23.70;99.90
354;DHT22;165;53.592;10.044;2022-07-29T06:51:14;23.80;99.90
354;DHT22;165;53.592;10.044;2022-07-29T06:53:41;24.40;99.30
354;DHT22;165;53.592;10.044;2022-07-29T06:56:07;24.50;97.30
354;DHT22;165;53.592;10.044;2022-07-29T06:58:37;24.30;97.60
354;DHT22;165;53.592;10.044;2022-07-29T07:01:04;23.90;97.90
354;DHT22;165;53.592;10.044;2022-07-29T07:03:30;22.90;99.90
354;DHT22;165;53.592;10.044;2022-07-29T07:05:56;22.70;99.90
354;DHT22;165;53.592;10.044;2022-07-29T07:08:22;22.40;99.90
354;DHT22;165;53.592;10.044;2022-07-29T07:10:49;22.40;99.90
354;DHT22;165;53.592;10.044;2022-07-29T07:13:15;22.50;99.90
354;DHT22;165;53.592;10.044;2022-07-29T07:15:42;22.60;99.90
354;DHT22;165;53.592;10.044;2022-07-29T07:18:08;22.80;99.90
354;DHT22;165;53.592;10.044;2022-07-29T07:20:34;23.20;99.90
354;DHT22;165;53.592;10.044;2022-07-29T07:23:00;23.70;99.90
354;DHT22;165;53.592;10.044;2022-07-29T07:25:26;23.80;98.70
354;DHT22;165;53.592;10.044;2022-07-29T07:27:51;23.50;99.70
354;DHT22;165;53.592;10.044;2022-07-29T07:30:17;23.10;99.90
354;DHT22;165;53.592;10.044;2022-07-29T07:32:42;22.80;99.90
354;DHT22;165;53.592;10.044;2022-07-29T07:35:09;22.50;99.90
354;DHT22;165;53.592;10.044;2022-07-29T07:37:35;22.20;99.90
354;DHT22;165;53.592;10.044;2022-07-29T07:40:01;22.10;99.90
354;DHT22;165;53.592;10.044;2022-07-29T07:42:27;22.10;99.90
354;DHT22;165;53.592;10.044;2022-07-29T07:44:52;22.00;99.90
354;DHT22;165;53.592;10.044;2022-07-29T07:47:18;21.80;99.90
354;DHT22;165;53.592;10.044;2022-07-29T07:49:48;21.80;99.90
354;DHT22;165;53.592;10.044;2022-07-29T07:52:15;22.00;99.90
354;DHT22;165;53.592;10.044;2022-07-29T07:54:41;22.30;99.90
354;DHT22;165;53.592;10.044;2022-07-29T07:57:08;22.60;99.90
354;DHT22;165;53.592;10.044;2022-07-29T07:59:34;22.70;99.90
354;DHT22;165;53.592;10.044;2022-07-29T08:01:59;22.80;99.90
354;DHT22;165;53.592;10.044;2022-07-29T08:04:26;23.10;99.90
354;DHT22;165;53.592;10.044;2022-07-29T08:06:52;23.40;99.90
354;DHT22;165;53.592;10.044;2022-07-29T08:09:20;23.50;99.90
354;DHT22;165;53.592;10.044;2022-07-29T08:11:45;23.90;99.70
354;DHT22;165;53.592;10.044;2022-07-29T08:14:11;24.40;99.00
354;DHT22;165;53.592;10.044;2022-07-29T08:16:36;25.10;97.10
354;DHT22;165;53.592;10.044;2022-07-29T08:19:02;24.80;96.20
354;DHT22;165;53.592;10.044;2022-07-29T08:21:27;25.60;94.90
354;DHT22;165;53.592;10.044;2022-07-29T08:23:53;26.60;93.70
354;DHT22;165;53.592;10.044;2022-07-29T08:26:39;27.70;91.20
354;DHT22;165;53.592;10.044;2022-07-29T08:29:04;28.90;84.80
354;DHT22;165;53.592;10.044;2022-07-29T08:31:30;29.90;77.70
354;DHT22;165;53.592;10.044;2022-07-29T08:33:55;30.50;74.00
354;DHT22;165;53.592;10.044;2022-07-29T08:36:21;31.20;69.00
354;DHT22;165;53.592;10.044;2022-07-29T08:38:47;31.60;65.70
354;DHT22;165;53.592;10.044;2022-07-29T08:41:14;33.00;60.40
354;DHT22;165;53.592;10.044;2022-07-29T08:43:40;32.90;57.50
354;DHT22;165;53.592;10.044;2022-07-29T08:46:06;33.30;55.20
354;DHT22;165;53.592;10.044;2022-07-29T08:48:32;33.20;54.10
354;DHT22;165;53.592;10.044;2022-07-29T08:50:58;33.60;53.20
354;DHT22;165;53.592;10.044;2022-07-29T08:53:26;33.50;52.20
354;DHT22;165;53.592;10.044;2022-07-29T08:55:53;33.80;51.10
354;DHT22;165;53.592;10.044;2022-07-29T08:58:19;33.50;51.70
354;DHT22;165;53.592;10.044;2022-07-29T09:00:50;33.90;51.10
354;DHT22;165;53.592;10.044;2022-07-29T09:03:19;33.60;50.90
354;DHT22;165;53.592;10.044;2022-07-29T09:05:46;33.30;51.20
354;DHT22;165;53.592;10.044;2022-07-29T09:08:13;33.80;51.50
354;DHT22;165;53.592;10.044;2022-07-29T09:10:39;34.70;49.60
354;DHT22;165;53.592;10.044;2022-07-29T09:13:05;34.80;48.80
354;DHT22;165;53.592;10.044;2022-07-29T09:15:31;36.00;46.80
354;DHT22;165;53.592;10.044;2022-07-29T09:17:57;36.00;45.40
354;DHT22;165;53.592;10.044;2022-07-29T09:20:24;35.80;44.00
354;DHT22;165;53.592;10.044;2022-07-29T09:22:51;35.50;44.60
354;DHT22;165;53.592;10.044;2022-07-29T09:25:38;34.80;45.20
354;DHT22;165;53.592;10.044;2022-07-29T09:28:14;35.30;44.50
354;DHT22;165;53.592;10.044;2022-07-29T09:30:58;35.10;44.20
354;DHT22;165;53.592;10.044;2022-07-29T09:33:31;33.70;45.80
354;DHT22;165;53.592;10.044;2022-07-29T09:38:30;30.40;50.40
354;DHT22;165;53.592;10.044;2022-07-29T09:40:57;30.20;52.00
354;DHT22;165;53.592;10.044;2022-07-29T09:43:23;29.60;52.30
354;DHT22;165;53.592;10.044;2022-07-29T09:45:48;29.00;53.80
354;DHT22;165;53.592;10.044;2022-07-29T09:48:40;28.40;55.30
354;DHT22;165;53.592;10.044;2022-07-29T09:51:19;27.90;56.30
354;DHT22;165;53.592;10.044;2022-07-29T09:53:45;27.70;55.80
354;DHT22;165;53.592;10.044;2022-07-29T09:56:10;27.50;56.10
354;DHT22;165;53.592;10.044;2022-07-29T09:58:36;27.20;56.60
354;DHT22;165;53.592;10.044;2022-07-29T10:01:02;27.20;57.20
354;DHT22;165;53.592;10.044;2022-07-29T10:03:29;27.30;57.10
354;DHT22;165;53.592;10.044;2022-07-29T10:06:11;27.60;57.30
354;DHT22;165;53.592;10.044;2022-07-29T10:08:38;28.10;56.90
354;DHT22;165;53.592;10.044;2022-07-29T10:11:12;28.40;56.00
354;DHT22;165;53.592;10.044;2022-07-29T10:13:40;29.20;54.30
354;DHT22;165;53.592;10.044;2022-07-29T10:16:06;29.10;54.00
354;DHT22;165;53.592;10.044;2022-07-29T10:18:33;29.20;54.30
354;DHT22;165;53.592;10.044;2022-07-29T10:21:00;28.80;55.50
354;DHT22;165;53.592;10.044;2022-07-29T10:23:30;28.60;55.30
354;DHT22;165;53.592;10.044;2022-07-29T10:25:57;28.70;54.80
354;DHT22;165;53.592;10.044;2022-07-29T10:28:22;28.60;55.30
354;DHT22;165;53.592;10.044;2022-07-29T10:30:50;28.30;55.30
354;DHT22;165;53.592;10.044;2022-07-29T10:42:06;27.50;55.40
354;DHT22;165;53.592;10.044;2022-07-29T10:44:40;27.10;55.70
354;DHT22;165;53.592;10.044;2022-07-29T10:47:06;27.20;56.50
354;DHT22;165;53.592;10.044;2022-07-29T10:49:32;27.30;56.90
354;DHT22;165;53.592;10.044;2022-07-29T10:57:27;27.20;57.50
354;DHT22;165;53.592;10.044;2022-07-29T11:05:07;26.80;57.30
354;DHT22;165;53.592;10.044;2022-07-29T11:07:35;26.60;56.80
354;DHT22;165;53.592;10.044;2022-07-29T11:15:05;27.80;55.90
354;DHT22;165;53.592;10.044;2022-07-29T11:20:42;28.20;53.90
354;DHT22;165;53.592;10.044;2022-07-29T11:23:25;28.40;54.00
354;DHT22;165;53.592;10.044;2022-07-29T11:31:33;29.40;53.00
354;DHT22;165;53.592;10.044;2022-07-29T11:34:24;29.50;53.20
354;DHT22;165;53.592;10.044;2022-07-29T11:40:08;29.60;52.70
354;DHT22;165;53.592;10.044;2022-07-29T11:45:04;29.70;51.40
354;DHT22;165;53.592;10.044;2022-07-29T11:47:36;29.30;51.50
354;DHT22;165;53.592;10.044;2022-07-29T11:50:04;29.20;51.80
354;DHT22;165;53.592;10.044;2022-07-29T11:52:38;28.90;52.10
354;DHT22;165;53.592;10.044;2022-07-29T11:55:09;28.90;52.20
354;DHT22;165;53.592;10.044;2022-07-29T11:57:35;28.90;52.30
354;DHT22;165;53.592;10.044;2022-07-29T12:00:06;28.60;52.70
354;DHT22;165;53.592;10.044;2022-07-29T12:02:40;28.40;53.20
354;DHT22;165;53.592;10.044;2022-07-29T12:05:10;28.40;53.70
354;DHT22;165;53.592;10.044;2022-07-29T12:07:40;28.30;53.60
354;DHT22;165;53.592;10.044;2022-07-29T12:10:13;28.00;53.80
354;DHT22;165;53.592;10.044;2022-07-29T12:12:39;28.00;54.90
354;DHT22;165;53.592;10.044;2022-07-29T12:15:15;27.90;54.00
354;DHT22;165;53.592;10.044;2022-07-29T12:17:43;28.20;54.40
354;DHT22;165;53.592;10.044;2022-07-29T12:20:08;28.30;54.10
354;DHT22;165;53.592;10.044;2022-07-29T12:22:39;28.20;54.60
354;DHT22;165;53.592;10.044;2022-07-29T12:25:12;28.00;54.20
354;DHT22;165;53.592;10.044;2022-07-29T12:27:39;27.90;54.50
354;DHT22;165;53.592;10.044;2022-07-29T12:30:09;27.80;54.30
354;DHT22;165;53.592;10.044;2022-07-29T12:32:40;27.90;54.40
354;DHT22;165;53.592;10.044;2022-07-29T12:35:11;27.80;54.70
354;DHT22;165;53.592;10.044;2022-07-29T12:37:39;28.10;54.20
354;DHT22;165;53.592;10.044;2022-07-29T12:40:07;28.20;54.20
354;DHT22;165;53.592;10.044;2022-07-29T12:42:33;28.20;53.90
354;DHT22;165;53.592;10.044;2022-07-29T12:44:59;28.10;54.50
354;DHT22;165;53.592;10.044;2022-07-29T12:47:24;28.20;53.70
354;DHT22;165;53.592;10.044;2022-07-29T12:49:50;28.40;54.20
354;DHT22;165;53.592;10.044;2022-07-29T12:52:33;28.40;54.40
354;DHT22;165;53.592;10.044;2022-07-29T12:54:59;28.00;53.20
354;DHT22;165;53.592;10.044;2022-07-29T12:57:26;27.80;52.90
354;DHT22;165;53.592;10.044;2022-07-29T13:02:24;27.40;54.20
354;DHT22;165;53.592;10.044;2022-07-29T13:04:58;27.40;54.60
354;DHT22;165;53.592;10.044;2022-07-29T13:07:29;27.10;54.70
354;DHT22;165;53.592;10.044;2022-07-29T13:10:16;27.10;54.60
354;DHT22;165;53.592;10.044;2022-07-29T13:13:01;27.10;54.50
354;DHT22;165;53.592;10.044;2022-07-29T13:15:27;27.10;53.50
354;DHT22;165;53.592;10.044;2022-07-29T13:17:53;27.00;53.10
354;DHT22;165;53.592;10.044;2022-07-29T13:20:18;26.80;53.30
354;DHT22;165;53.592;10.044;2022-07-29T13:22:58;26.90;53.10
354;DHT22;165;53.592;10.044;2022-07-29T13:25:50;27.00;57.40
354;DHT22;165;53.592;10.044;2022-07-29T13:28:43;27.00;63.10
354;DHT22;165;53.592;10.044;2022-07-29T13:31:25;27.00;64.90
354;DHT22;165;53.592;10.044;2022-07-29T13:34:26;26.70;65.80
354;DHT22;165;53.592;10.044;2022-07-29T13:37:05;26.70;67.20
354;DHT22;165;53.592;10.044;2022-07-29T13:39:34;26.40;68.20
354;DHT22;165;53.592;10.044;2022-07-29T13:42:21;26.20;69.30
354;DHT22;165;53.592;10.044;2022-07-29T13:44:50;26.20;70.10
354;DHT22;165;53.592;10.044;2022-07-29T13:47:20;26.30;70.20
354;DHT22;165;53.592;10.044;2022-07-29T13:49:46;26.40;69.90
354;DHT22;165;53.592;10.044;2022-07-29T13:52:11;26.40;69.40
354;DHT22;165;53.592;10.044;2022-07-29T13:54:37;26.20;70.30
354;DHT22;165;53.592;10.044;2022-07-29T13:57:04;26.00;71.10
354;DHT22;165;53.592;10.044;2022-07-29T13:59:35;25.80;71.50
354;DHT22;165;53.592;10.044;2022-07-29T14:02:01;25.60;72.50
354;DHT22;165;53.592;10.044;2022-07-29T14:04:27;25.50;73.70
354;DHT22;165;53.592;10.044;2022-07-29T14:06:52;25.20;74.10
354;DHT22;165;53.592;10.044;2022-07-29T14:09:18;25.10;75.10
354;DHT22;165;53.592;10.044;2022-07-29T14:11:44;25.00;75.80
354;DHT22;165;53.592;10.044;2022-07-29T14:14:10;25.10;76.20
354;DHT22;165;53.592;10.044;2022-07-29T14:16:36;25.30;76.00
354;DHT22;165;53.592;10.044;2022-07-29T14:19:02;25.40;75.90
354;DHT22;165;53.592;10.044;2022-07-29T14:21:27;25.70;74.90
354;DHT22;165;53.592;10.044;2022-07-29T14:23:53;25.90;74.10
354;DHT22;165;53.592;10.044;2022-07-29T14:26:20;26.00;73.80
354;DHT22;165;53.592;10.044;2022-07-29T14:28:46;26.00;73.90
354;DHT22;165;53.592;10.044;2022-07-29T14:31:12;25.80;74.50
354;DHT22;165;53.592;10.044;2022-07-29T14:33:37;25.60;75.50
354;DHT22;165;53.592;10.044;2022-07-29T14:36:03;25.30;75.80
354;DHT22;165;53.592;10.044;2022-07-29T14:38:29;25.10;76.60
354;DHT22;165;53.592;10.044;2022-07-29T14:40:54;25.00;77.50
354;DHT22;165;53.592;10.044;2022-07-29T14:43:20;24.90;78.10
354;DHT22;165;53.592;10.044;2022-07-29T14:45:45;24.90;78.70
354;DHT22;165;53.592;10.044;2022-07-29T14:48:12;24.90;78.50
354;DHT22;165;53.592;10.044;2022-07-29T14:50:38;24.90;78.30
354;DHT22;165;53.592;10.044;2022-07-29T14:53:03;24.90;78.90
354;DHT22;165;53.592;10.044;2022-07-29T14:55:29;25.00;79.60
354;DHT22;165;53.592;10.044;2022-07-29T14:57:55;25.00;80.40
354;DHT22;165;53.592;10.044;2022-07-29T15:00:21;25.10;80.30
354;DHT22;165;53.592;10.044;2022-07-29T15:02:47;25.10;80.70
354;DHT22;165;53.592;10.044;2022-07-29T15:05:13;25.30;80.20
354;DHT22;165;53.592;10.044;2022-07-29T15:07:38;25.30;80.50
354;DHT22;165;53.592;10.044;2022-07-29T15:10:04;25.40;80.40
354;DHT22;165;53.592;10.044;2022-07-29T15:12:31;25.40;80.30
354;DHT22;165;53.592;10.044;2022-07-29T15:14:56;25.40;80.80
354;DHT22;165;53.592;10.044;2022-07-29T15:17:22;25.30;81.50
354;DHT22;165;53.592;10.044;2022-07-29T15:19:47;25.30;82.20
354;DHT22;165;53.592;10.044;2022-07-29T15:22:13;25.30;81.90
354;DHT22;165;53.592;10.044;2022-07-29T15:24:38;25.20;82.10
354;DHT22;165;53.592;10.044;2022-07-29T15:27:04;25.30;82.50
354;DHT22;165;53.592;10.044;2022-07-29T15:29:30;25.20;81.80
354;DHT22;165;53.592;10.044;2022-07-29T15:31:55;25.10;82.40
354;DHT22;165;53.592;10.044;2022-07-29T15:34:21;25.00;82.70
354;DHT22;165;53.592;10.044;2022-07-29T15:36:49;24.70;83.70
354;DHT22;165;53.592;10.044;2022-07-29T15:39:14;24.40;84.30
354;DHT22;165;53.592;10.044;2022-07-29T15:41:40;24.20;86.80
354;DHT22;165;53.592;10.044;2022-07-29T15:44:05;24.20;88.00
354;DHT22;165;53.592;10.044;2022-07-29T15:46:31;24.20;89.50
354;DHT22;165;53.592;10.044;2022-07-29T15:49:15;24.30;90.10
354;DHT22;165;53.592;10.044;2022-07-29T15:51:41;24.30;90.40
354;DHT22;165;53.592;10.044;2022-07-29T15:54:06;24.40;90.90
354;DHT22;165;53.592;10.044;2022-07-29T15:56:32;24.50;91.10
354;DHT22;165;53.592;10.044;2022-07-29T15:58:58;24.80;91.30
354;DHT22;165;53.592;10.044;2022-07-29T16:01:23;25.00;90.90
354;DHT22;165;53.592;10.044;2022-07-29T16:03:49;25.10;91.50
354;DHT22;165;53.592;10.044;2022-07-29T16:06:15;25.20;91.80
354;DHT22;165;53.592;10.044;2022-07-29T16:08:41;25.20;91.50
354;DHT22;165;53.592;10.044;2022-07-29T16:11:06;25.30;91.50
354;DHT22;165;53.592;10.044;2022-07-29T16:13:32;25.40;91.40
354;DHT22;165;53.592;10.044;2022-07-29T16:15:58;25.30;91.60
354;DHT22;165;53.592;10.044;2022-07-29T16:18:23;25.30;92.00
354;DHT22;165;53.592;10.044;2022-07-29T16:20:48;25.30;91.90
354;DHT22;165;53.592;10.044;2022-07-29T16:23:14;25.20;92.30
354;DHT22;165;53.592;10.044;2022-07-29T16:25:41;25.10;92.80
354;DHT22;165;53.592;10.044;2022-07-29T16:28:07;24.90;93.70
354;DHT22;165;53.592;10.044;2022-07-29T16:30:33;24.80;94.30
354;DHT22;165;53.592;10.044;2022-07-29T16:32:59;24.70;94.20
354;DHT22;165;53.592;10.044;2022-07-29T16:35:25;24.70;94.90
354;DHT22;165;53.592;10.044;2022-07-29T16:37:51;24.70;95.60
354;DHT22;165;53.592;10.044;2022-07-29T16:40:16;24.70;96.00
354;DHT22;165;53.592;10.044;2022-07-29T16:42:42;24.70;96.50
354;DHT22;165;53.592;10.044;2022-07-29T16:45:08;24.70;96.80
354;DHT22;165;53.592;10.044;2022-07-29T16:47:33;24.40;98.10
354;DHT22;165;53.592;10.044;2022-07-29T16:49:59;24.30;99.70
354;DHT22;165;53.592;10.044;2022-07-29T16:52:25;24.30;99.90
354;DHT22;165;53.592;10.044;2022-07-29T16:54:50;24.30;99.90
354;DHT22;165;53.592;10.044;2022-07-29T16:57:16;24.00;99.90
354;DHT22;165;53.592;10.044;2022-07-29T16:59:41;23.90;99.90
354;DHT22;165;53.592;10.044;2022-07-29T17:02:07;23.70;99.90
354;DHT22;165;53.592;10.044;2022-07-29T17:04:32;23.60;99.90
354;DHT22;165;53.592;10.044;2022-07-29T17:06:59;23.50;99.90
354;DHT22;165;53.592;10.044;2022-07-29T17:09:25;23.50;99.90